Accueil
METAR-TAF:

METAR-TAF

Aéroports :

Mannheim, Allemagne

Aéroport de Mannheim

latitude: 49-28-21N, longitude: 008-30-56E, altitude: 100 m

Observation

Le bulletin a été fait il y a 2 heures et 40 minutes, à 18:50 UTC
Vent 3 kt de direction variable
Température 9°C
Humidité 57%
Pression 1012 hPa
Visibilité 10 km ou plus
Nuages fragmentés à une hauteur de 4400 ft

METAR: EDFM 261850Z VRB03KT 9999 BKN044 09/01 Q1012

Heure: 23:30 (21:30 UTC)

Prévision

Le bulletin a été fait il y a 4 heures et 30 minutes, à 17:00 UTC
Prévision valable du 26 à 18 UTC au 26 à 21 UTC
Vent 3 kt de direction variable
Visibilité 10 km ou plus
Nuages épars à une hauteur de 4000 ft

TAF: EDFM 261700Z 2618/2621 VRB03KT 9999 SCT040

Observations et prévisions météorologiques de plus de 4000 aéroports (messages METAR et TAF).

Les stations disponibles sont représentées par des disques jaunes et rouges sur la carte.

Passer la souris dessus pour voir le nom de la station.

Cliquer dessus pour voir les observations et prévisions météorologiques.

Pour changer de carte: cliquez sur les boutons verts avec une croix noire pour zoomer, sur le bouton vert avec un tiret pour effectuer un zoom arrière, ou sur les flèches vertes pour les cartes adjacentes.


METAR-TAF: